createdAt,value
2022-08-11T00:13:59.694Z,8.20
2022-08-11T00:35:53.663Z,7.30
2022-08-11T00:46:18.982Z,7.20
2022-08-11T01:08:16.364Z,4.90
2022-08-11T01:19:05.296Z,5.30
2022-08-11T01:30:20.289Z,4.70
2022-08-11T01:41:12.620Z,5.70
2022-08-11T01:51:34.364Z,6.50
2022-08-11T02:02:48.246Z,6.10
2022-08-11T02:13:37.262Z,4.30
2022-08-11T02:24:05.496Z,6.60
2022-08-11T02:35:00.172Z,7.60
2022-08-11T02:45:47.826Z,5.60
2022-08-11T02:56:02.191Z,6.00
2022-08-11T03:06:10.997Z,6.00
2022-08-11T03:17:05.032Z,7.00
2022-08-11T03:27:23.392Z,5.70
2022-08-11T03:38:07.906Z,6.50
2022-08-11T03:48:35.532Z,7.30
2022-08-11T03:59:26.720Z,7.20
2022-08-11T04:10:16.635Z,8.50
2022-08-11T04:20:34.463Z,6.50
2022-08-11T04:42:30.999Z,8.60
2022-08-11T04:53:31.200Z,7.60
2022-08-11T05:04:33.591Z,7.20
2022-08-11T05:15:42.391Z,8.20
2022-08-11T05:38:06.389Z,9.50
2022-08-11T05:58:58.499Z,6.20
2022-08-11T06:09:06.953Z,10.20
2022-08-11T06:19:23.487Z,6.10
2022-08-11T06:29:37.586Z,9.50
2022-08-11T06:40:59.211Z,6.20
2022-08-11T06:51:12.349Z,5.50
2022-08-11T07:01:36.793Z,8.20
2022-08-11T07:12:34.317Z,5.30
2022-08-11T07:23:10.792Z,6.10
2022-08-11T07:34:07.645Z,6.90
2022-08-11T07:43:51.305Z,4.80
2022-08-11T07:53:58.660Z,4.60
2022-08-11T08:05:18.430Z,6.10
2022-08-11T08:15:48.185Z,4.30
2022-08-11T08:26:02.635Z,3.60
2022-08-11T08:36:17.150Z,5.40
2022-08-11T08:46:31.565Z,2.70
2022-08-11T08:56:38.776Z,3.90
2022-08-11T09:06:53.069Z,3.60
2022-08-11T09:17:35.831Z,4.10
2022-08-11T09:27:51.878Z,5.70
2022-08-11T09:38:16.136Z,4.60
2022-08-11T09:48:40.863Z,2.80
2022-08-11T09:59:28.458Z,2.70
2022-08-11T10:10:08.944Z,1.60
2022-08-11T10:20:15.913Z,5.00
2022-08-11T10:30:52.727Z,1.80
2022-08-11T10:52:46.775Z,5.90
2022-08-11T11:13:53.332Z,2.90
2022-08-11T11:24:39.399Z,2.10
2022-08-11T11:35:16.595Z,1.70
2022-08-11T11:45:24.433Z,2.10
2022-08-11T11:55:42.491Z,2.20
2022-08-11T12:05:58.321Z,2.00
2022-08-11T12:16:34.338Z,4.50
2022-08-11T12:27:15.024Z,2.90
2022-08-11T12:48:58.747Z,5.70
2022-08-11T12:59:33.653Z,5.70
2022-08-11T13:09:50.738Z,5.10
2022-08-11T13:20:03.538Z,4.30
2022-08-11T13:40:56.092Z,1.90
2022-08-11T13:51:19.134Z,1.40
2022-08-11T14:02:20.322Z,6.10
2022-08-11T14:13:06.660Z,4.40
2022-08-11T14:34:08.986Z,2.40
2022-08-11T14:55:29.501Z,4.30
2022-08-11T15:17:42.709Z,2.30
2022-08-11T15:42:00.541Z,4.30
2022-08-11T15:50:56.613Z,1.60
2022-08-11T16:36:30.778Z,2.40
2022-08-11T16:58:39.741Z,3.10
2022-08-11T17:21:16.146Z,4.70
2022-08-11T17:32:18.714Z,3.00
2022-08-11T18:04:58.125Z,3.40
2022-08-11T18:15:32.497Z,5.90
2022-08-11T18:26:21.703Z,4.70
2022-08-11T18:37:37.549Z,8.20
2022-08-11T18:48:01.084Z,13.30
2022-08-11T18:58:46.831Z,18.90
2022-08-11T19:09:35.338Z,17.80
2022-08-11T19:20:04.595Z,11.20
2022-08-11T19:30:38.629Z,8.30
2022-08-11T19:41:52.186Z,4.40
2022-08-11T19:53:16.931Z,11.20
2022-08-11T20:04:04.383Z,8.90
2022-08-11T20:14:32.098Z,7.80
2022-08-11T20:25:01.249Z,5.40
2022-08-11T20:47:21.838Z,8.30
2022-08-11T20:58:01.406Z,9.00
2022-08-11T21:09:19.543Z,6.10
2022-08-11T21:20:37.495Z,11.30
2022-08-11T21:31:20.725Z,9.20
2022-08-11T21:53:17.150Z,6.70
2022-08-11T22:03:49.825Z,14.00
2022-08-11T22:14:16.246Z,10.60
2022-08-11T22:24:38.584Z,14.10
2022-08-11T22:35:03.361Z,10.00
2022-08-11T22:45:28.268Z,9.60
2022-08-11T22:55:51.232Z,9.40
2022-08-11T23:06:21.399Z,9.80
2022-08-11T23:16:44.629Z,9.30
2022-08-11T23:27:10.073Z,9.40
2022-08-11T23:37:34.101Z,7.80
2022-08-11T23:48:09.707Z,6.90
2022-08-11T23:58:37.207Z,8.30
